Lng/c Golar Seal — V7AE9 — position and weather

sailwx.info

Track history (hours):
 
Tides and Currents Weather Stations Pressure Air Temp Water Temp Dewpoint Dewpoint Depression Visibility Wind Speed Wind Dir Waves Ship Positions

Lng/c Golar Seal

Last reported at 2018-Jun-21 10:39 UTC. Time now 2018-Jun-21 13:58 UTC.
Position S 34°46' E 018°49'.

Length 281 m; draft 11.7 m.

Type: Tanker. MMSI: 538004980.

Date/timePositionNaut miles runAvg speedWind from/ knotsBaromVisibWave heightAir tempDewpointWater temp
2018-Jun-21 10:39S 34°46' E 018°49'316.1
2018-Jun-21 10:29S 34°45' E 018°46'916.2
2018-Jun-21 09:57S 34°41' E 018°37'915.8
2018-Jun-21 09:21S 34°36' E 018°27'515.4
2018-Jun-21 09:00S 34°32' E 018°23'815.4
2018-Jun-21 08:30S 34°26' E 018°17'815.4
2018-Jun-21 08:00S 34°19' E 018°12'815.7
2018-Jun-21 07:29S 34°12' E 018°08'715.5
2018-Jun-21 07:00S 34°04' E 018°07'815.3
2018-Jun-21 06:30S 33°57' E 018°11'6 3.1
2018-Jun-21 04:26S 33°51' E 018°14'10 6.2
2018-Jun-21 02:51S 33°45' E 018°05'614.8
2018-Jun-21 02:27S 33°42' E 017°59'715.6
2018-Jun-21 01:59S 33°37' E 017°52'  
Track history (hours):
 
Tides and Currents Weather Stations Pressure Air Temp Water Temp Dewpoint Dewpoint Depression Visibility Wind Speed Wind Dir Waves Ship Positions

Lng/c Golar Seal

Last reported at 2018-Jun-21 10:39 UTC. Time now 2018-Jun-21 13:58 UTC.
Position S 34°46' E 018°49'.

Length 281 m; draft 11.7 m.

Type: Tanker. MMSI: 538004980.

Date/timePositionNaut miles runAvg speedWind from/ knotsBaromVisibWave heightAir tempDewpointWater temp
2018-Jun-21 10:39S 34°46' E 018°49'316.1
2018-Jun-21 10:29S 34°45' E 018°46'916.2
2018-Jun-21 09:57S 34°41' E 018°37'915.8
2018-Jun-21 09:21S 34°36' E 018°27'515.4
2018-Jun-21 09:00S 34°32' E 018°23'815.4
2018-Jun-21 08:30S 34°26' E 018°17'815.4
2018-Jun-21 08:00S 34°19' E 018°12'815.7
2018-Jun-21 07:29S 34°12' E 018°08'715.5
2018-Jun-21 07:00S 34°04' E 018°07'815.3
2018-Jun-21 06:30S 33°57' E 018°11'6 3.1
2018-Jun-21 04:26S 33°51' E 018°14'10 6.2
2018-Jun-21 02:51S 33°45' E 018°05'614.8
2018-Jun-21 02:27S 33°42' E 017°59'715.6
2018-Jun-21 01:59S 33°37' E 017°52'  

Dump ship's entire track history